sensor_id;sensor_type;location;lat;lon;timestamp;temperature;humidity
21298;DHT22;10808;48.010;11.326;2023-05-07T00:00:04;14.30;99.90
21298;DHT22;10808;48.010;11.326;2023-05-07T00:02:34;14.30;99.90
21298;DHT22;10808;48.010;11.326;2023-05-07T00:05:01;14.30;99.90
21298;DHT22;10808;48.010;11.326;2023-05-07T00:07:28;14.30;99.90
21298;DHT22;10808;48.010;11.326;2023-05-07T00:09:54;14.30;99.90
21298;DHT22;10808;48.010;11.326;2023-05-07T00:12:20;14.20;99.90
21298;DHT22;10808;48.010;11.326;2023-05-07T00:14:46;14.20;99.90
21298;DHT22;10808;48.010;11.326;2023-05-07T00:17:12;14.20;99.90
21298;DHT22;10808;48.010;11.326;2023-05-07T00:19:38;14.20;99.90
21298;DHT22;10808;48.010;11.326;2023-05-07T00:22:04;14.20;99.90
21298;DHT22;10808;48.010;11.326;2023-05-07T00:24:30;14.20;99.90
21298;DHT22;10808;48.010;11.326;2023-05-07T00:26:56;14.10;99.90
21298;DHT22;10808;48.010;11.326;2023-05-07T00:29:23;14.10;99.90
21298;DHT22;10808;48.010;11.326;2023-05-07T00:31:49;14.10;99.90
21298;DHT22;10808;48.010;11.326;2023-05-07T00:34:16;14.10;99.90
21298;DHT22;10808;48.010;11.326;2023-05-07T00:36:42;14.10;99.90
21298;DHT22;10808;48.010;11.326;2023-05-07T00:39:08;14.10;99.90
21298;DHT22;10808;48.010;11.326;2023-05-07T00:41:34;14.00;99.90
21298;DHT22;10808;48.010;11.326;2023-05-07T00:44:00;14.00;99.90
21298;DHT22;10808;48.010;11.326;2023-05-07T00:46:28;14.00;99.90
21298;DHT22;10808;48.010;11.326;2023-05-07T00:48:56;14.00;99.90
21298;DHT22;10808;48.010;11.326;2023-05-07T00:51:24;14.00;99.90
21298;DHT22;10808;48.010;11.326;2023-05-07T00:53:51;14.00;99.90
21298;DHT22;10808;48.010;11.326;2023-05-07T00:56:17;13.90;99.90
21298;DHT22;10808;48.010;11.326;2023-05-07T00:58:43;13.90;99.90
21298;DHT22;10808;48.010;11.326;2023-05-07T01:01:09;13.90;99.90
21298;DHT22;10808;48.010;11.326;2023-05-07T01:03:35;13.90;99.90
21298;DHT22;10808;48.010;11.326;2023-05-07T01:06:01;13.90;99.90
21298;DHT22;10808;48.010;11.326;2023-05-07T01:08:28;13.90;99.90
21298;DHT22;10808;48.010;11.326;2023-05-07T01:10:56;13.90;99.90
21298;DHT22;10808;48.010;11.326;2023-05-07T01:13:24;13.90;99.90
21298;DHT22;10808;48.010;11.326;2023-05-07T01:15:50;13.90;99.90
21298;DHT22;10808;48.010;11.326;2023-05-07T01:18:16;13.90;99.90
21298;DHT22;10808;48.010;11.326;2023-05-07T01:20:42;13.80;99.90
21298;DHT22;10808;48.010;11.326;2023-05-07T01:23:10;13.80;99.90
21298;DHT22;10808;48.010;11.326;2023-05-07T01:25:37;13.80;99.90
21298;DHT22;10808;48.010;11.326;2023-05-07T01:28:03;13.70;99.90
21298;DHT22;10808;48.010;11.326;2023-05-07T01:30:29;13.70;99.90
21298;DHT22;10808;48.010;11.326;2023-05-07T01:33:10;13.70;99.90
21298;DHT22;10808;48.010;11.326;2023-05-07T01:35:41;13.70;99.90
21298;DHT22;10808;48.010;11.326;2023-05-07T01:38:08;13.70;99.90
21298;DHT22;10808;48.010;11.326;2023-05-07T01:40:34;13.70;99.90
21298;DHT22;10808;48.010;11.326;2023-05-07T01:43:02;13.70;99.90
21298;DHT22;10808;48.010;11.326;2023-05-07T01:45:28;13.70;99.90
21298;DHT22;10808;48.010;11.326;2023-05-07T01:47:55;13.70;99.90
21298;DHT22;10808;48.010;11.326;2023-05-07T01:50:22;13.70;99.90
21298;DHT22;10808;48.010;11.326;2023-05-07T01:52:51;13.70;99.90
21298;DHT22;10808;48.010;11.326;2023-05-07T01:55:18;13.60;99.90
21298;DHT22;10808;48.010;11.326;2023-05-07T01:57:44;13.60;99.90
21298;DHT22;10808;48.010;11.326;2023-05-07T02:00:10;13.60;99.90
21298;DHT22;10808;48.010;11.326;2023-05-07T02:02:37;13.60;99.90
21298;DHT22;10808;48.010;11.326;2023-05-07T02:05:04;13.60;99.90
21298;DHT22;10808;48.010;11.326;2023-05-07T02:07:30;13.50;99.90
21298;DHT22;10808;48.010;11.326;2023-05-07T02:09:56;13.50;99.90
21298;DHT22;10808;48.010;11.326;2023-05-07T02:12:22;13.50;99.90
21298;DHT22;10808;48.010;11.326;2023-05-07T02:14:49;13.50;99.90
21298;DHT22;10808;48.010;11.326;2023-05-07T02:17:15;13.50;99.90
21298;DHT22;10808;48.010;11.326;2023-05-07T02:19:41;13.50;99.90
21298;DHT22;10808;48.010;11.326;2023-05-07T02:22:09;13.50;99.90
21298;DHT22;10808;48.010;11.326;2023-05-07T02:24:35;13.50;99.90
21298;DHT22;10808;48.010;11.326;2023-05-07T02:27:01;13.50;99.90
21298;DHT22;10808;48.010;11.326;2023-05-07T02:29:28;13.40;99.90
21298;DHT22;10808;48.010;11.326;2023-05-07T02:31:54;13.50;99.90
21298;DHT22;10808;48.010;11.326;2023-05-07T02:34:21;13.40;99.90
21298;DHT22;10808;48.010;11.326;2023-05-07T02:36:47;13.40;99.90
21298;DHT22;10808;48.010;11.326;2023-05-07T02:39:13;13.40;99.90
21298;DHT22;10808;48.010;11.326;2023-05-07T02:41:39;13.40;99.90
21298;DHT22;10808;48.010;11.326;2023-05-07T02:44:05;13.40;99.90
21298;DHT22;10808;48.010;11.326;2023-05-07T02:46:31;13.40;99.90
21298;DHT22;10808;48.010;11.326;2023-05-07T02:48:57;13.30;99.90
21298;DHT22;10808;48.010;11.326;2023-05-07T02:51:25;13.30;99.90
21298;DHT22;10808;48.010;11.326;2023-05-07T02:53:51;13.30;99.90
21298;DHT22;10808;48.010;11.326;2023-05-07T02:56:17;13.30;99.90
21298;DHT22;10808;48.010;11.326;2023-05-07T02:58:43;13.30;99.90
21298;DHT22;10808;48.010;11.326;2023-05-07T03:01:09;13.30;99.90
21298;DHT22;10808;48.010;11.326;2023-05-07T03:03:36;13.30;99.90
21298;DHT22;10808;48.010;11.326;2023-05-07T03:06:02;13.20;99.90
21298;DHT22;10808;48.010;11.326;2023-05-07T03:08:28;13.20;99.90
21298;DHT22;10808;48.010;11.326;2023-05-07T03:10:54;13.20;99.90
21298;DHT22;10808;48.010;11.326;2023-05-07T03:13:20;13.20;99.90
21298;DHT22;10808;48.010;11.326;2023-05-07T03:15:46;13.20;99.90
21298;DHT22;10808;48.010;11.326;2023-05-07T03:18:12;13.10;99.90
21298;DHT22;10808;48.010;11.326;2023-05-07T03:20:38;13.10;99.90
21298;DHT22;10808;48.010;11.326;2023-05-07T03:23:04;13.10;99.90
21298;DHT22;10808;48.010;11.326;2023-05-07T03:25:30;13.10;99.90
21298;DHT22;10808;48.010;11.326;2023-05-07T03:27:56;13.10;99.90
21298;DHT22;10808;48.010;11.326;2023-05-07T03:30:22;13.10;99.90
21298;DHT22;10808;48.010;11.326;2023-05-07T03:32:48;13.10;99.90
21298;DHT22;10808;48.010;11.326;2023-05-07T03:35:14;13.10;99.90
21298;DHT22;10808;48.010;11.326;2023-05-07T03:37:40;13.00;99.90
21298;DHT22;10808;48.010;11.326;2023-05-07T03:40:07;13.00;99.90
21298;DHT22;10808;48.010;11.326;2023-05-07T03:42:33;13.00;99.90
21298;DHT22;10808;48.010;11.326;2023-05-07T03:45:00;13.00;99.90
21298;DHT22;10808;48.010;11.326;2023-05-07T03:47:26;13.00;99.90
21298;DHT22;10808;48.010;11.326;2023-05-07T03:49:52;13.00;99.90
21298;DHT22;10808;48.010;11.326;2023-05-07T03:52:19;12.90;99.90
21298;DHT22;10808;48.010;11.326;2023-05-07T03:54:49;12.90;99.90
21298;DHT22;10808;48.010;11.326;2023-05-07T03:57:15;12.90;99.90
21298;DHT22;10808;48.010;11.326;2023-05-07T03:59:41;12.90;99.90
21298;DHT22;10808;48.010;11.326;2023-05-07T04:02:07;12.90;99.90
21298;DHT22;10808;48.010;11.326;2023-05-07T04:04:33;12.90;99.90
21298;DHT22;10808;48.010;11.326;2023-05-07T04:06:59;12.80;99.90
21298;DHT22;10808;48.010;11.326;2023-05-07T04:09:26;12.80;99.90
21298;DHT22;10808;48.010;11.326;2023-05-07T04:11:52;12.80;99.90
21298;DHT22;10808;48.010;11.326;2023-05-07T04:14:18;12.80;99.90
21298;DHT22;10808;48.010;11.326;2023-05-07T04:16:44;12.70;99.90
21298;DHT22;10808;48.010;11.326;2023-05-07T04:19:10;12.70;99.90
21298;DHT22;10808;48.010;11.326;2023-05-07T04:21:36;12.70;99.90
21298;DHT22;10808;48.010;11.326;2023-05-07T04:24:05;12.70;99.90
21298;DHT22;10808;48.010;11.326;2023-05-07T04:26:31;12.70;99.90
21298;DHT22;10808;48.010;11.326;2023-05-07T04:28:58;12.80;99.90
21298;DHT22;10808;48.010;11.326;2023-05-07T04:31:24;12.80;99.90
21298;DHT22;10808;48.010;11.326;2023-05-07T04:33:50;12.80;99.90
21298;DHT22;10808;48.010;11.326;2023-05-07T04:36:17;12.80;99.90
21298;DHT22;10808;48.010;11.326;2023-05-07T04:38:43;12.80;99.90
21298;DHT22;10808;48.010;11.326;2023-05-07T04:41:12;12.80;99.90
21298;DHT22;10808;48.010;11.326;2023-05-07T04:43:38;12.80;99.90
21298;DHT22;10808;48.010;11.326;2023-05-07T04:46:04;12.70;99.90
21298;DHT22;10808;48.010;11.326;2023-05-07T04:48:30;12.80;99.90
21298;DHT22;10808;48.010;11.326;2023-05-07T04:50:56;12.80;99.90
21298;DHT22;10808;48.010;11.326;2023-05-07T04:53:23;12.80;99.90
21298;DHT22;10808;48.010;11.326;2023-05-07T04:55:54;12.90;99.90
21298;DHT22;10808;48.010;11.326;2023-05-07T04:58:20;12.90;99.90
21298;DHT22;10808;48.010;11.326;2023-05-07T05:00:46;12.90;99.90
21298;DHT22;10808;48.010;11.326;2023-05-07T05:03:12;12.90;99.90
21298;DHT22;10808;48.010;11.326;2023-05-07T05:05:38;13.00;99.90
21298;DHT22;10808;48.010;11.326;2023-05-07T05:08:04;13.00;99.90
21298;DHT22;10808;48.010;11.326;2023-05-07T05:10:30;13.10;99.90
21298;DHT22;10808;48.010;11.326;2023-05-07T05:12:56;13.20;99.90
21298;DHT22;10808;48.010;11.326;2023-05-07T05:15:22;13.20;99.90
21298;DHT22;10808;48.010;11.326;2023-05-07T05:17:48;13.20;99.90
21298;DHT22;10808;48.010;11.326;2023-05-07T05:20:14;13.30;99.90
21298;DHT22;10808;48.010;11.326;2023-05-07T05:22:41;13.40;99.90
21298;DHT22;10808;48.010;11.326;2023-05-07T05:25:08;13.50;99.90
21298;DHT22;10808;48.010;11.326;2023-05-07T05:27:34;13.60;99.90
21298;DHT22;10808;48.010;11.326;2023-05-07T05:30:01;13.70;99.90
21298;DHT22;10808;48.010;11.326;2023-05-07T05:32:27;13.80;99.90
21298;DHT22;10808;48.010;11.326;2023-05-07T05:34:53;14.00;99.90
21298;DHT22;10808;48.010;11.326;2023-05-07T05:37:19;14.10;99.90
21298;DHT22;10808;48.010;11.326;2023-05-07T05:39:45;14.30;99.90
21298;DHT22;10808;48.010;11.326;2023-05-07T05:42:11;14.40;99.90
21298;DHT22;10808;48.010;11.326;2023-05-07T05:44:37;14.60;99.90
21298;DHT22;10808;48.010;11.326;2023-05-07T05:47:03;14.80;99.90
21298;DHT22;10808;48.010;11.326;2023-05-07T05:49:29;14.90;99.90
21298;DHT22;10808;48.010;11.326;2023-05-07T05:51:55;15.10;99.90
21298;DHT22;10808;48.010;11.326;2023-05-07T05:54:21;15.30;99.90
21298;DHT22;10808;48.010;11.326;2023-05-07T05:56:47;15.50;99.90
21298;DHT22;10808;48.010;11.326;2023-05-07T05:59:14;15.70;99.90
21298;DHT22;10808;48.010;11.326;2023-05-07T06:01:40;15.80;99.90
21298;DHT22;10808;48.010;11.326;2023-05-07T06:04:06;16.00;99.90
21298;DHT22;10808;48.010;11.326;2023-05-07T06:06:32;16.20;99.90
21298;DHT22;10808;48.010;11.326;2023-05-07T06:08:58;16.50;99.90
21298;DHT22;10808;48.010;11.326;2023-05-07T06:11:24;16.70;99.90
21298;DHT22;10808;48.010;11.326;2023-05-07T06:13:51;16.90;99.90
21298;DHT22;10808;48.010;11.326;2023-05-07T06:16:17;17.10;99.90
21298;DHT22;10808;48.010;11.326;2023-05-07T06:18:43;17.30;99.90
21298;DHT22;10808;48.010;11.326;2023-05-07T06:21:11;17.50;99.90
21298;DHT22;10808;48.010;11.326;2023-05-07T06:23:37;17.60;99.90
21298;DHT22;10808;48.010;11.326;2023-05-07T06:26:03;17.90;99.90
21298;DHT22;10808;48.010;11.326;2023-05-07T06:28:29;18.30;99.90
21298;DHT22;10808;48.010;11.326;2023-05-07T06:31:11;18.50;99.90
21298;DHT22;10808;48.010;11.326;2023-05-07T06:33:37;18.80;99.90
21298;DHT22;10808;48.010;11.326;2023-05-07T06:36:03;19.10;99.90
21298;DHT22;10808;48.010;11.326;2023-05-07T06:38:29;19.40;99.90
21298;DHT22;10808;48.010;11.326;2023-05-07T06:40:55;19.50;99.90
21298;DHT22;10808;48.010;11.326;2023-05-07T06:43:22;19.90;99.90
21298;DHT22;10808;48.010;11.326;2023-05-07T06:45:51;20.10;99.90
21298;DHT22;10808;48.010;11.326;2023-05-07T06:48:17;20.30;99.90
21298;DHT22;10808;48.010;11.326;2023-05-07T06:50:43;20.60;99.90
21298;DHT22;10808;48.010;11.326;2023-05-07T06:53:09;20.90;99.90
21298;DHT22;10808;48.010;11.326;2023-05-07T06:55:35;21.00;99.90
21298;DHT22;10808;48.010;11.326;2023-05-07T06:58:01;21.20;99.90
21298;DHT22;10808;48.010;11.326;2023-05-07T07:00:27;21.40;99.90
21298;DHT22;10808;48.010;11.326;2023-05-07T07:02:54;21.60;99.90
21298;DHT22;10808;48.010;11.326;2023-05-07T07:05:20;21.80;99.90
21298;DHT22;10808;48.010;11.326;2023-05-07T07:07:46;22.00;99.90
21298;DHT22;10808;48.010;11.326;2023-05-07T07:10:19;22.30;99.90
21298;DHT22;10808;48.010;11.326;2023-05-07T07:12:45;22.70;99.90
21298;DHT22;10808;48.010;11.326;2023-05-07T07:15:11;22.80;99.90
21298;DHT22;10808;48.010;11.326;2023-05-07T07:17:37;22.70;99.90
21298;DHT22;10808;48.010;11.326;2023-05-07T07:20:04;22.90;99.90
21298;DHT22;10808;48.010;11.326;2023-05-07T07:22:30;23.00;99.90
21298;DHT22;10808;48.010;11.326;2023-05-07T07:24:56;23.20;99.80
21298;DHT22;10808;48.010;11.326;2023-05-07T07:27:22;23.30;99.90
21298;DHT22;10808;48.010;11.326;2023-05-07T07:29:49;23.30;99.60
21298;DHT22;10808;48.010;11.326;2023-05-07T07:32:15;23.40;99.20
21298;DHT22;10808;48.010;11.326;2023-05-07T07:34:41;23.60;98.60
21298;DHT22;10808;48.010;11.326;2023-05-07T07:37:07;23.70;98.60
21298;DHT22;10808;48.010;11.326;2023-05-07T07:39:33;23.80;99.00
21298;DHT22;10808;48.010;11.326;2023-05-07T07:42:00;24.00;98.90
21298;DHT22;10808;48.010;11.326;2023-05-07T07:44:27;24.40;98.00
21298;DHT22;10808;48.010;11.326;2023-05-07T07:46:53;24.70;98.20
21298;DHT22;10808;48.010;11.326;2023-05-07T07:49:20;25.00;97.90
21298;DHT22;10808;48.010;11.326;2023-05-07T07:51:46;25.30;96.50
21298;DHT22;10808;48.010;11.326;2023-05-07T07:54:12;25.20;96.30
21298;DHT22;10808;48.010;11.326;2023-05-07T07:56:38;25.30;96.40
21298;DHT22;10808;48.010;11.326;2023-05-07T07:59:04;25.70;97.40
21298;DHT22;10808;48.010;11.326;2023-05-07T08:01:30;25.90;95.90
21298;DHT22;10808;48.010;11.326;2023-05-07T08:03:56;26.30;95.70
21298;DHT22;10808;48.010;11.326;2023-05-07T08:06:24;26.70;95.10
21298;DHT22;10808;48.010;11.326;2023-05-07T08:08:51;26.70;94.00
21298;DHT22;10808;48.010;11.326;2023-05-07T08:11:17;26.90;94.60
21298;DHT22;10808;48.010;11.326;2023-05-07T08:13:43;27.30;93.90
21298;DHT22;10808;48.010;11.326;2023-05-07T08:16:11;27.50;93.30
21298;DHT22;10808;48.010;11.326;2023-05-07T08:18:37;27.70;92.50
21298;DHT22;10808;48.010;11.326;2023-05-07T08:21:03;27.80;92.80
21298;DHT22;10808;48.010;11.326;2023-05-07T08:23:29;28.00;91.10
21298;DHT22;10808;48.010;11.326;2023-05-07T08:25:55;28.20;91.50
21298;DHT22;10808;48.010;11.326;2023-05-07T08:28:23;28.50;90.60
21298;DHT22;10808;48.010;11.326;2023-05-07T08:30:50;28.80;91.40
21298;DHT22;10808;48.010;11.326;2023-05-07T08:33:16;28.90;90.70
21298;DHT22;10808;48.010;11.326;2023-05-07T08:35:42;29.00;87.80
21298;DHT22;10808;48.010;11.326;2023-05-07T08:38:08;29.10;88.00
21298;DHT22;10808;48.010;11.326;2023-05-07T08:40:38;29.00;87.20
21298;DHT22;10808;48.010;11.326;2023-05-07T08:43:06;29.30;84.90
21298;DHT22;10808;48.010;11.326;2023-05-07T08:45:35;29.50;88.50
21298;DHT22;10808;48.010;11.326;2023-05-07T08:48:07;29.50;83.60
21298;DHT22;10808;48.010;11.326;2023-05-07T08:50:36;29.50;86.60
21298;DHT22;10808;48.010;11.326;2023-05-07T08:53:05;29.90;89.50
21298;DHT22;10808;48.010;11.326;2023-05-07T08:55:32;30.20;86.00
21298;DHT22;10808;48.010;11.326;2023-05-07T08:57:59;30.40;84.20
21298;DHT22;10808;48.010;11.326;2023-05-07T09:00:25;30.50;81.20
21298;DHT22;10808;48.010;11.326;2023-05-07T09:02:52;30.60;80.20
21298;DHT22;10808;48.010;11.326;2023-05-07T09:05:19;30.90;83.10
21298;DHT22;10808;48.010;11.326;2023-05-07T09:07:46;31.20;83.10
21298;DHT22;10808;48.010;11.326;2023-05-07T09:10:12;31.40;79.50
21298;DHT22;10808;48.010;11.326;2023-05-07T09:12:39;31.10;76.70
21298;DHT22;10808;48.010;11.326;2023-05-07T09:15:06;31.00;80.90
21298;DHT22;10808;48.010;11.326;2023-05-07T09:17:32;31.10;74.80
21298;DHT22;10808;48.010;11.326;2023-05-07T09:20:05;31.30;79.30
21298;DHT22;10808;48.010;11.326;2023-05-07T09:22:32;31.50;77.80
21298;DHT22;10808;48.010;11.326;2023-05-07T09:24:58;31.50;73.80
21298;DHT22;10808;48.010;11.326;2023-05-07T09:27:25;31.50;75.40
21298;DHT22;10808;48.010;11.326;2023-05-07T09:29:51;31.80;78.80
21298;DHT22;10808;48.010;11.326;2023-05-07T09:32:17;32.00;74.80
21298;DHT22;10808;48.010;11.326;2023-05-07T09:34:43;32.20;77.10
21298;DHT22;10808;48.010;11.326;2023-05-07T09:37:12;32.40;74.80
21298;DHT22;10808;48.010;11.326;2023-05-07T09:39:43;32.60;73.10
21298;DHT22;10808;48.010;11.326;2023-05-07T09:42:09;32.60;71.90
21298;DHT22;10808;48.010;11.326;2023-05-07T09:44:38;33.10;72.30
21298;DHT22;10808;48.010;11.326;2023-05-07T09:47:05;33.30;74.00
21298;DHT22;10808;48.010;11.326;2023-05-07T09:49:35;33.40;72.60
21298;DHT22;10808;48.010;11.326;2023-05-07T09:52:03;33.50;72.60
21298;DHT22;10808;48.010;11.326;2023-05-07T09:54:32;33.60;71.60
21298;DHT22;10808;48.010;11.326;2023-05-07T09:57:01;33.70;69.60
21298;DHT22;10808;48.010;11.326;2023-05-07T09:59:30;33.70;68.60
21298;DHT22;10808;48.010;11.326;2023-05-07T10:01:58;33.60;65.80
21298;DHT22;10808;48.010;11.326;2023-05-07T10:04:25;33.60;69.70
21298;DHT22;10808;48.010;11.326;2023-05-07T10:06:52;33.60;68.30
21298;DHT22;10808;48.010;11.326;2023-05-07T10:09:20;33.70;69.60
21298;DHT22;10808;48.010;11.326;2023-05-07T10:11:49;33.70;68.10
21298;DHT22;10808;48.010;11.326;2023-05-07T10:14:15;33.60;68.90
21298;DHT22;10808;48.010;11.326;2023-05-07T10:16:41;33.50;68.00
21298;DHT22;10808;48.010;11.326;2023-05-07T10:19:09;33.80;68.00
21298;DHT22;10808;48.010;11.326;2023-05-07T10:21:39;33.50;62.80
21298;DHT22;10808;48.010;11.326;2023-05-07T10:24:35;33.40;67.50
21298;DHT22;10808;48.010;11.326;2023-05-07T10:27:07;33.70;67.70
21298;DHT22;10808;48.010;11.326;2023-05-07T10:29:44;33.90;67.60
21298;DHT22;10808;48.010;11.326;2023-05-07T10:34:45;33.70;69.60
21298;DHT22;10808;48.010;11.326;2023-05-07T10:37:13;34.00;68.00
21298;DHT22;10808;48.010;11.326;2023-05-07T10:39:40;34.20;64.10
21298;DHT22;10808;48.010;11.326;2023-05-07T10:42:13;34.40;64.60
21298;DHT22;10808;48.010;11.326;2023-05-07T10:44:40;34.20;62.50
21298;DHT22;10808;48.010;11.326;2023-05-07T10:47:11;34.00;65.90
21298;DHT22;10808;48.010;11.326;2023-05-07T10:52:22;34.20;66.60
21298;DHT22;10808;48.010;11.326;2023-05-07T10:57:47;34.10;60.60
21298;DHT22;10808;48.010;11.326;2023-05-07T11:05:31;33.90;62.00
21298;DHT22;10808;48.010;11.326;2023-05-07T11:07:58;33.80;62.50
21298;DHT22;10808;48.010;11.326;2023-05-07T11:10:50;33.70;64.90
21298;DHT22;10808;48.010;11.326;2023-05-07T11:13:17;33.50;66.00
21298;DHT22;10808;48.010;11.326;2023-05-07T11:15:44;33.20;62.00
21298;DHT22;10808;48.010;11.326;2023-05-07T11:18:14;33.00;66.00
21298;DHT22;10808;48.010;11.326;2023-05-07T11:20:49;33.00;66.50
21298;DHT22;10808;48.010;11.326;2023-05-07T11:26:01;32.50;66.20
21298;DHT22;10808;48.010;11.326;2023-05-07T11:28:29;32.60;69.40
21298;DHT22;10808;48.010;11.326;2023-05-07T11:30:56;32.80;66.80
21298;DHT22;10808;48.010;11.326;2023-05-07T11:33:23;33.00;68.00
21298;DHT22;10808;48.010;11.326;2023-05-07T11:35:53;32.80;66.30
21298;DHT22;10808;48.010;11.326;2023-05-07T11:38:19;32.80;65.50
21298;DHT22;10808;48.010;11.326;2023-05-07T11:40:53;32.90;68.00
21298;DHT22;10808;48.010;11.326;2023-05-07T11:43:19;32.90;65.60
21298;DHT22;10808;48.010;11.326;2023-05-07T11:45:46;32.80;62.30
21298;DHT22;10808;48.010;11.326;2023-05-07T11:48:13;32.60;67.80
21298;DHT22;10808;48.010;11.326;2023-05-07T11:53:25;32.80;68.30
21298;DHT22;10808;48.010;11.326;2023-05-07T11:55:53;32.70;65.70
21298;DHT22;10808;48.010;11.326;2023-05-07T11:58:23;32.80;66.60
21298;DHT22;10808;48.010;11.326;2023-05-07T12:00:51;32.70;66.10
21298;DHT22;10808;48.010;11.326;2023-05-07T12:03:17;32.70;64.30
21298;DHT22;10808;48.010;11.326;2023-05-07T12:05:46;32.70;66.80
21298;DHT22;10808;48.010;11.326;2023-05-07T12:08:16;32.60;64.60
21298;DHT22;10808;48.010;11.326;2023-05-07T12:10:43;32.50;66.50
21298;DHT22;10808;48.010;11.326;2023-05-07T12:13:24;32.60;68.00
21298;DHT22;10808;48.010;11.326;2023-05-07T12:15:55;32.80;64.80
21298;DHT22;10808;48.010;11.326;2023-05-07T12:18:22;32.60;64.70
21298;DHT22;10808;48.010;11.326;2023-05-07T12:20:49;32.20;65.90
21298;DHT22;10808;48.010;11.326;2023-05-07T12:23:16;32.00;63.90
21298;DHT22;10808;48.010;11.326;2023-05-07T12:25:43;31.80;65.60
21298;DHT22;10808;48.010;11.326;2023-05-07T12:28:16;31.60;65.80
21298;DHT22;10808;48.010;11.326;2023-05-07T12:30:43;31.40;67.30
21298;DHT22;10808;48.010;11.326;2023-05-07T12:33:10;31.40;67.30
21298;DHT22;10808;48.010;11.326;2023-05-07T12:35:40;31.50;66.30
21298;DHT22;10808;48.010;11.326;2023-05-07T12:38:14;31.40;67.30
21298;DHT22;10808;48.010;11.326;2023-05-07T12:40:41;31.60;67.70
21298;DHT22;10808;48.010;11.326;2023-05-07T12:43:15;31.60;65.40
21298;DHT22;10808;48.010;11.326;2023-05-07T12:45:42;31.70;67.00
21298;DHT22;10808;48.010;11.326;2023-05-07T12:48:10;31.60;64.50
21298;DHT22;10808;48.010;11.326;2023-05-07T12:50:36;31.60;68.50
21298;DHT22;10808;48.010;11.326;2023-05-07T12:53:06;31.80;67.30
21298;DHT22;10808;48.010;11.326;2023-05-07T12:55:44;32.00;64.70
21298;DHT22;10808;48.010;11.326;2023-05-07T12:58:21;32.10;66.70
21298;DHT22;10808;48.010;11.326;2023-05-07T13:00:49;32.00;63.40
21298;DHT22;10808;48.010;11.326;2023-05-07T13:05:50;32.00;67.20
21298;DHT22;10808;48.010;11.326;2023-05-07T13:08:36;32.00;67.00
21298;DHT22;10808;48.010;11.326;2023-05-07T13:11:04;31.70;63.30
21298;DHT22;10808;48.010;11.326;2023-05-07T13:13:31;31.50;67.90
21298;DHT22;10808;48.010;11.326;2023-05-07T13:15:57;31.50;66.00
21298;DHT22;10808;48.010;11.326;2023-05-07T13:18:28;31.40;65.40
21298;DHT22;10808;48.010;11.326;2023-05-07T13:20:54;31.00;66.40
21298;DHT22;10808;48.010;11.326;2023-05-07T13:23:21;31.00;68.00
21298;DHT22;10808;48.010;11.326;2023-05-07T13:25:47;30.90;68.10
21298;DHT22;10808;48.010;11.326;2023-05-07T13:28:13;30.80;70.60
21298;DHT22;10808;48.010;11.326;2023-05-07T13:30:40;30.80;67.90
21298;DHT22;10808;48.010;11.326;2023-05-07T13:33:09;30.60;68.60
21298;DHT22;10808;48.010;11.326;2023-05-07T13:35:35;30.50;69.40
21298;DHT22;10808;48.010;11.326;2023-05-07T13:38:01;30.50;70.20
21298;DHT22;10808;48.010;11.326;2023-05-07T13:40:27;30.50;71.00
21298;DHT22;10808;48.010;11.326;2023-05-07T13:42:53;30.40;71.20
21298;DHT22;10808;48.010;11.326;2023-05-07T13:45:19;30.30;67.40
21298;DHT22;10808;48.010;11.326;2023-05-07T13:47:46;30.20;71.00
21298;DHT22;10808;48.010;11.326;2023-05-07T13:50:12;30.00;71.80
21298;DHT22;10808;48.010;11.326;2023-05-07T13:52:43;29.80;72.80
21298;DHT22;10808;48.010;11.326;2023-05-07T13:55:09;29.80;73.60
21298;DHT22;10808;48.010;11.326;2023-05-07T13:57:36;29.70;72.60
21298;DHT22;10808;48.010;11.326;2023-05-07T14:00:03;29.60;70.30
21298;DHT22;10808;48.010;11.326;2023-05-07T14:02:31;29.40;74.00
21298;DHT22;10808;48.010;11.326;2023-05-07T14:04:57;29.40;74.80
21298;DHT22;10808;48.010;11.326;2023-05-07T14:07:23;29.20;73.10
21298;DHT22;10808;48.010;11.326;2023-05-07T14:09:49;29.10;73.60
21298;DHT22;10808;48.010;11.326;2023-05-07T14:12:15;29.00;75.30
21298;DHT22;10808;48.010;11.326;2023-05-07T14:14:41;28.90;74.50
21298;DHT22;10808;48.010;11.326;2023-05-07T14:17:07;28.70;74.00
21298;DHT22;10808;48.010;11.326;2023-05-07T14:19:34;28.50;74.60
21298;DHT22;10808;48.010;11.326;2023-05-07T14:22:00;28.40;75.60
21298;DHT22;10808;48.010;11.326;2023-05-07T14:24:26;28.20;75.60
21298;DHT22;10808;48.010;11.326;2023-05-07T14:26:52;28.20;75.70
21298;DHT22;10808;48.010;11.326;2023-05-07T14:29:18;28.10;77.80
21298;DHT22;10808;48.010;11.326;2023-05-07T14:31:45;28.10;76.70
21298;DHT22;10808;48.010;11.326;2023-05-07T14:34:11;28.00;76.80
21298;DHT22;10808;48.010;11.326;2023-05-07T14:36:37;27.90;77.40
21298;DHT22;10808;48.010;11.326;2023-05-07T14:39:04;27.70;75.60
21298;DHT22;10808;48.010;11.326;2023-05-07T14:41:30;27.50;77.20
21298;DHT22;10808;48.010;11.326;2023-05-07T14:43:57;27.40;78.30
21298;DHT22;10808;48.010;11.326;2023-05-07T14:46:24;27.40;77.70
21298;DHT22;10808;48.010;11.326;2023-05-07T14:48:51;27.40;77.90
21298;DHT22;10808;48.010;11.326;2023-05-07T14:51:18;27.40;78.50
21298;DHT22;10808;48.010;11.326;2023-05-07T14:53:44;27.50;78.30
21298;DHT22;10808;48.010;11.326;2023-05-07T14:56:10;27.40;77.40
21298;DHT22;10808;48.010;11.326;2023-05-07T14:58:36;27.30;78.30
21298;DHT22;10808;48.010;11.326;2023-05-07T15:01:03;27.20;78.40
21298;DHT22;10808;48.010;11.326;2023-05-07T15:03:29;27.10;77.20
21298;DHT22;10808;48.010;11.326;2023-05-07T15:05:55;27.00;78.70
21298;DHT22;10808;48.010;11.326;2023-05-07T15:08:21;26.90;78.80
21298;DHT22;10808;48.010;11.326;2023-05-07T15:10:48;26.80;79.40
21298;DHT22;10808;48.010;11.326;2023-05-07T15:13:14;26.70;77.80
21298;DHT22;10808;48.010;11.326;2023-05-07T15:15:41;26.60;78.00
21298;DHT22;10808;48.010;11.326;2023-05-07T15:18:07;26.50;80.10
21298;DHT22;10808;48.010;11.326;2023-05-07T15:20:33;26.30;79.40
21298;DHT22;10808;48.010;11.326;2023-05-07T15:22:59;26.10;78.70
21298;DHT22;10808;48.010;11.326;2023-05-07T15:25:25;26.00;79.80
21298;DHT22;10808;48.010;11.326;2023-05-07T15:27:51;25.90;81.00
21298;DHT22;10808;48.010;11.326;2023-05-07T15:30:17;25.90;79.70
21298;DHT22;10808;48.010;11.326;2023-05-07T15:32:46;25.80;80.90
21298;DHT22;10808;48.010;11.326;2023-05-07T15:35:12;25.80;80.50